Time;durP1;ratioP1;P1;durP2;ratioP2;P2;SDS_P1;SDS_P2;PMS_P1;PMS_P2;Temp;Humidity;BMP_temperature;BMP_pressure;BME280_temperature;BME280_humidity;BME280_pressure;Samples;Min_cycle;Max_cycle;Signal;HPM_P1;HPM_P2
2020/12/06 00:00:11;;;;;;;19.15;10.27;;;5.60;99.90;;;;;;5036789;28;20235;-72
2020/12/06 00:02:37;;;;;;;18.00;11.05;;;5.70;99.90;;;;;;5036312;28;20234;-72
2020/12/06 00:05:05;;;;;;;16.25;10.00;;;5.70;99.90;;;;;;5036001;28;20228;-72
2020/12/06 00:07:31;;;;;;;16.90;9.48;;;5.70;99.90;;;;;;5036212;28;20218;-72
2020/12/06 00:09:57;;;;;;;20.00;11.02;;;5.80;99.90;;;;;;5036250;28;20229;-72
2020/12/06 00:12:23;;;;;;;18.20;10.40;;;5.90;99.90;;;;;;5036141;28;20224;-72
2020/12/06 00:14:50;;;;;;;23.50;11.02;;;5.90;99.90;;;;;;5035984;28;20561;-72
2020/12/06 00:17:17;;;;;;;18.05;10.38;;;5.80;99.90;;;;;;5036081;28;20229;-72
2020/12/06 00:19:46;;;;;;;15.10;8.63;;;5.80;99.90;;;;;;5036004;28;20200;-72
2020/12/06 00:22:13;;;;;;;17.77;9.75;;;5.60;99.90;;;;;;5035836;28;20723;-72
2020/12/06 00:24:39;;;;;;;21.27;10.80;;;5.60;99.90;;;;;;5035741;28;20259;-73
2020/12/06 00:27:05;;;;;;;17.27;11.05;;;5.70;99.90;;;;;;5035988;28;20287;-72
2020/12/06 00:29:32;;;;;;;23.52;11.23;;;5.80;99.90;;;;;;5035873;28;20208;-72
2020/12/06 00:31:58;;;;;;;20.40;9.85;;;5.90;99.90;;;;;;5035430;28;20232;-72
2020/12/06 00:34:26;;;;;;;19.05;9.93;;;5.70;99.90;;;;;;5035548;28;20207;-72
2020/12/06 00:36:52;;;;;;;21.15;10.25;;;5.60;99.90;;;;;;5035507;28;20678;-72
2020/12/06 00:39:18;;;;;;;14.55;9.55;;;5.60;99.90;;;;;;5035682;28;20206;-72
2020/12/06 00:41:45;;;;;;;16.23;10.52;;;5.50;99.90;;;;;;5035363;28;20698;-72
2020/12/06 00:44:11;;;;;;;21.55;11.90;;;5.50;99.90;;;;;;5035345;28;20232;-72
2020/12/06 00:46:38;;;;;;;18.98;10.32;;;5.50;99.90;;;;;;5035381;28;20209;-71
2020/12/06 00:49:04;;;;;;;21.45;10.27;;;5.60;99.90;;;;;;5035529;28;20689;-72
2020/12/06 00:51:31;;;;;;;17.25;9.63;;;5.60;99.90;;;;;;5035377;28;20596;-72
2020/12/06 00:53:58;;;;;;;20.15;10.73;;;5.50;99.90;;;;;;5035471;28;20202;-72
2020/12/06 00:56:24;;;;;;;19.35;9.50;;;5.50;99.90;;;;;;5035303;28;20303;-72
2020/12/06 00:58:51;;;;;;;21.85;10.52;;;5.50;99.90;;;;;;5035348;28;20206;-72
2020/12/06 01:01:19;;;;;;;16.77;9.35;;;5.30;99.90;;;;;;5035120;28;20234;-72
2020/12/06 01:03:45;;;;;;;23.10;11.32;;;5.30;99.90;;;;;;5035211;28;20204;-72
2020/12/06 01:06:14;;;;;;;15.85;9.07;;;5.10;99.90;;;;;;5034801;28;20208;-72
2020/12/06 01:08:42;;;;;;;18.08;10.70;;;5.10;99.90;;;;;;5035148;28;20574;-72
2020/12/06 01:11:11;;;;;;;19.00;10.23;;;5.10;99.90;;;;;;5034786;28;20252;-72
2020/12/06 01:13:37;;;;;;;15.93;9.20;;;5.10;99.90;;;;;;5035087;28;20210;-72
2020/12/06 01:16:03;;;;;;;21.60;11.75;;;5.10;99.90;;;;;;5034560;28;20208;-72
2020/12/06 01:18:30;;;;;;;22.88;12.77;;;5.30;99.90;;;;;;5035008;28;20210;-72
2020/12/06 01:20:56;;;;;;;24.92;10.63;;;5.30;99.90;;;;;;5034827;28;20204;-72
2020/12/06 01:23:22;;;;;;;19.33;9.82;;;5.20;99.90;;;;;;5034847;28;20234;-72
2020/12/06 01:25:50;;;;;;;20.48;11.27;;;5.10;99.90;;;;;;5034560;28;20231;-72
2020/12/06 01:28:16;;;;;;;22.90;10.82;;;5.20;99.90;;;;;;5034741;28;20200;-72
2020/12/06 01:30:42;;;;;;;25.30;11.68;;;5.10;99.90;;;;;;5034344;28;20211;-73
2020/12/06 01:33:09;;;;;;;25.75;11.40;;;5.10;99.90;;;;;;5034411;28;20242;-72
2020/12/06 01:35:35;;;;;;;20.92;10.35;;;5.10;99.90;;;;;;5034422;28;20200;-73
2020/12/06 01:38:01;;;;;;;17.80;10.00;;;5.00;99.90;;;;;;5034579;28;20207;-73
2020/12/06 01:40:28;;;;;;;27.88;11.05;;;5.20;99.90;;;;;;5034552;28;20230;-72
2020/12/06 01:42:55;;;;;;;20.83;10.52;;;5.30;99.90;;;;;;5034448;28;20230;-72
2020/12/06 01:45:21;;;;;;;25.60;10.63;;;5.50;99.90;;;;;;5034268;28;20220;-72
2020/12/06 01:47:48;;;;;;;27.75;11.88;;;5.60;99.90;;;;;;5034296;28;20208;-72
2020/12/06 01:50:14;;;;;;;23.33;11.65;;;5.50;99.90;;;;;;5034298;28;20204;-72
2020/12/06 01:52:41;;;;;;;23.90;10.55;;;5.70;99.90;;;;;;5034257;28;20228;-71
2020/12/06 01:55:12;;;;;;;18.27;9.35;;;5.70;99.90;;;;;;5034088;28;20210;-72
2020/12/06 01:57:38;;;;;;;18.13;10.30;;;5.60;99.90;;;;;;5034242;28;20207;-72
2020/12/06 02:00:07;;;;;;;20.75;9.38;;;5.50;99.90;;;;;;5034076;28;20208;-72
2020/12/06 02:02:33;;;;;;;18.63;9.63;;;5.40;99.90;;;;;;5034113;28;20230;-71
2020/12/06 02:05:00;;;;;;;21.15;10.52;;;5.30;99.90;;;;;;5033838;28;20297;-72
2020/12/06 02:07:28;;;;;;;22.60;8.88;;;5.10;99.90;;;;;;5034042;28;20569;-71
2020/12/06 02:09:55;;;;;;;16.95;9.48;;;5.10;99.90;;;;;;5033835;28;20204;-72
2020/12/06 02:12:21;;;;;;;20.60;9.25;;;5.00;99.90;;;;;;5033197;28;20223;-71
2020/12/06 02:14:47;;;;;;;22.27;9.60;;;5.00;99.90;;;;;;5033755;28;20200;-71
2020/12/06 02:17:15;;;;;;;30.30;12.00;;;5.10;99.90;;;;;;5033874;28;20200;-72
2020/12/06 02:19:41;;;;;;;20.63;9.00;;;5.10;99.90;;;;;;5033859;28;20200;-71
2020/12/06 02:22:09;;;;;;;25.95;11.23;;;5.00;99.90;;;;;;5033830;28;20319;-71
2020/12/06 02:24:35;;;;;;;24.00;10.82;;;5.00;99.90;;;;;;5033413;28;20690;-72
2020/12/06 02:27:01;;;;;;;19.63;9.80;;;4.90;99.90;;;;;;5033992;28;20206;-72
2020/12/06 02:29:28;;;;;;;27.35;11.93;;;4.90;99.90;;;;;;5033636;28;20210;-72
2020/12/06 02:31:54;;;;;;;24.42;10.50;;;5.00;99.90;;;;;;5033307;28;20709;-72
2020/12/06 02:34:20;;;;;;;22.17;11.18;;;5.00;99.90;;;;;;5033572;28;20196;-72
2020/12/06 02:36:46;;;;;;;22.20;10.18;;;5.00;99.90;;;;;;5033351;28;20689;-72
2020/12/06 02:39:14;;;;;;;22.13;10.02;;;4.80;99.90;;;;;;5033586;28;20200;-72
2020/12/06 02:41:41;;;;;;;22.15;11.10;;;4.70;99.90;;;;;;5033372;28;20230;-72
2020/12/06 02:44:09;;;;;;;23.48;9.93;;;4.80;99.90;;;;;;5033424;28;20227;-72
2020/12/06 02:46:36;;;;;;;17.90;9.73;;;4.80;99.90;;;;;;5033380;28;20200;-71
2020/12/06 02:49:02;;;;;;;26.48;10.85;;;4.80;99.90;;;;;;5033512;28;20204;-71
2020/12/06 02:51:29;;;;;;;21.38;10.68;;;4.80;99.90;;;;;;5033409;28;20224;-72
2020/12/06 02:53:56;;;;;;;17.40;9.25;;;4.70;99.90;;;;;;5033460;28;20204;-72
2020/12/06 02:56:23;;;;;;;25.27;11.80;;;4.60;99.90;;;;;;5033037;28;20216;-71
2020/12/06 02:58:50;;;;;;;20.85;9.77;;;4.50;99.90;;;;;;5033375;28;20564;-71
2020/12/06 03:01:16;;;;;;;22.40;11.27;;;4.50;99.90;;;;;;5032977;28;20234;-71
2020/12/06 03:03:43;;;;;;;20.10;10.38;;;4.60;99.90;;;;;;5033394;28;20566;-71
2020/12/06 03:06:10;;;;;;;18.73;9.88;;;4.80;99.90;;;;;;5033221;28;20199;-72
2020/12/06 03:08:37;;;;;;;18.75;10.85;;;4.80;99.90;;;;;;5033266;28;20208;-72
2020/12/06 03:11:04;;;;;;;18.83;9.68;;;4.90;99.90;;;;;;5033268;28;20270;-72
2020/12/06 03:13:31;;;;;;;22.05;10.77;;;4.80;99.90;;;;;;5033996;28;20561;-72
2020/12/06 03:15:57;;;;;;;20.58;9.20;;;4.80;99.90;;;;;;5033253;28;20208;-72
2020/12/06 03:18:24;;;;;;;18.50;8.77;;;4.80;99.90;;;;;;5033397;28;20208;-71
2020/12/06 03:20:50;;;;;;;19.92;9.55;;;4.80;99.90;;;;;;5033172;28;20204;-72
2020/12/06 03:23:16;;;;;;;23.42;9.80;;;4.80;99.90;;;;;;5033297;28;20572;-71
2020/12/06 03:25:43;;;;;;;17.08;9.73;;;4.90;99.90;;;;;;5035902;28;20230;-71
2020/12/06 03:28:09;;;;;;;23.42;9.05;;;5.00;99.90;;;;;;5037022;28;20208;-72
2020/12/06 03:30:36;;;;;;;21.25;9.43;;;4.90;99.90;;;;;;5036895;28;20201;-72
2020/12/06 03:33:02;;;;;;;25.30;10.63;;;4.50;99.90;;;;;;5036927;28;20240;-72
2020/12/06 03:35:29;;;;;;;20.05;9.40;;;4.30;99.90;;;;;;5036621;28;20204;-72
2020/12/06 03:37:55;;;;;;;27.75;11.68;;;4.20;99.90;;;;;;5036833;28;20210;-71
2020/12/06 03:40:21;;;;;;;29.90;11.43;;;4.20;99.90;;;;;;5036482;28;20206;-71
2020/12/06 03:42:50;;;;;;;19.73;9.40;;;4.10;99.90;;;;;;5036810;28;20578;-71
2020/12/06 03:45:16;;;;;;;24.65;9.43;;;3.90;99.90;;;;;;5036241;28;20231;-71
2020/12/06 03:47:44;;;;;;;20.25;8.70;;;3.80;99.90;;;;;;5036634;28;20204;-71
2020/12/06 03:50:10;;;;;;;20.55;9.27;;;3.90;99.90;;;;;;5036638;28;20208;-71
2020/12/06 03:52:36;;;;;;;23.55;8.35;;;4.00;99.90;;;;;;5036526;28;20232;-71
2020/12/06 03:55:03;;;;;;;20.58;8.38;;;4.00;99.90;;;;;;5036404;28;20206;-71
2020/12/06 03:57:30;;;;;;;26.48;10.80;;;4.10;99.90;;;;;;5036492;28;20200;-72
2020/12/06 03:59:56;;;;;;;17.02;8.60;;;4.10;99.90;;;;;;5036426;28;20206;-71
2020/12/06 04:02:23;;;;;;;25.13;9.75;;;4.30;99.90;;;;;;5036358;28;20585;-71
2020/12/06 04:04:50;;;;;;;27.95;8.60;;;4.50;99.90;;;;;;5036003;28;20220;-71
2020/12/06 04:07:16;;;;;;;23.55;8.43;;;4.50;99.90;;;;;;5036181;28;20214;-71
2020/12/06 04:09:42;;;;;;;19.40;9.52;;;4.40;99.90;;;;;;5036286;28;20214;-71
2020/12/06 04:12:09;;;;;;;24.90;9.88;;;4.40;99.90;;;;;;5036164;28;20227;-71
2020/12/06 04:14:35;;;;;;;27.10;8.95;;;4.30;99.90;;;;;;5035985;28;20230;-72
2020/12/06 04:17:02;;;;;;;21.85;8.20;;;4.30;99.90;;;;;;5035991;28;20200;-71
2020/12/06 04:19:28;;;;;;;24.25;9.35;;;4.50;99.90;;;;;;5035923;28;20238;-71
2020/12/06 04:21:55;;;;;;;29.83;10.57;;;4.50;99.90;;;;;;5035790;28;20228;-71
2020/12/06 04:24:21;;;;;;;23.10;10.93;;;4.60;99.90;;;;;;5036120;28;20227;-72
2020/12/06 04:26:48;;;;;;;20.40;7.75;;;4.50;99.90;;;;;;5035481;28;20204;-71
2020/12/06 04:29:14;;;;;;;24.70;9.15;;;4.30;99.90;;;;;;5035861;28;20207;-71
2020/12/06 04:31:41;;;;;;;24.92;9.95;;;4.10;99.90;;;;;;5035674;28;20232;-71
2020/12/06 04:34:07;;;;;;;24.52;8.27;;;4.00;99.90;;;;;;5036157;28;20206;-71
2020/12/06 04:36:33;;;;;;;20.70;8.05;;;4.00;99.90;;;;;;5034958;28;20262;-72
2020/12/06 04:39:00;;;;;;;21.02;8.50;;;4.00;99.90;;;;;;5035656;28;20288;-72
2020/12/06 04:41:27;;;;;;;23.08;8.50;;;3.90;99.90;;;;;;5035559;28;20230;-71
2020/12/06 04:43:53;;;;;;;16.38;8.00;;;3.90;99.90;;;;;;5035692;28;20203;-72
2020/12/06 04:46:20;;;;;;;25.27;9.55;;;3.90;99.90;;;;;;5035411;28;20220;-71
2020/12/06 04:48:56;;;;;;;27.80;9.75;;;3.90;99.90;;;;;;5035506;28;20576;-71
2020/12/06 04:51:27;;;;;;;32.60;10.10;;;4.00;99.90;;;;;;5035213;28;20254;-71
2020/12/06 04:54:03;;;;;;;20.15;9.43;;;4.10;99.90;;;;;;5035557;28;20566;-71
2020/12/06 04:56:30;;;;;;;21.92;8.73;;;3.90;99.90;;;;;;5035429;28;20589;-72
2020/12/06 04:58:59;;;;;;;21.83;8.68;;;4.00;99.90;;;;;;5035366;28;20214;-72
2020/12/06 05:01:33;;;;;;;31.90;10.00;;;4.10;99.90;;;;;;5035606;28;20220;-72
2020/12/06 05:04:05;;;;;;;17.30;7.32;;;4.20;99.90;;;;;;5035683;28;20208;-71
2020/12/06 05:06:32;;;;;;;28.05;9.73;;;4.40;99.90;;;;;;5035134;28;20208;-72
2020/12/06 05:08:59;;;;;;;18.50;8.30;;;4.60;99.90;;;;;;5035225;28;20204;-72
2020/12/06 05:11:27;;;;;;;18.70;9.45;;;4.80;99.90;;;;;;5035050;28;20220;-72
2020/12/06 05:13:53;;;;;;;22.00;9.13;;;4.80;99.90;;;;;;5035096;28;20200;-72
2020/12/06 05:16:21;;;;;;;18.30;8.20;;;4.90;99.90;;;;;;5034967;28;20200;-71
2020/12/06 05:18:48;;;;;;;21.25;9.15;;;4.80;99.90;;;;;;5035034;28;20212;-71
2020/12/06 05:21:14;;;;;;;21.13;8.60;;;4.90;99.90;;;;;;5034737;28;20228;-71
2020/12/06 05:23:41;;;;;;;22.90;9.65;;;5.00;99.90;;;;;;5034901;28;20214;-71
2020/12/06 05:26:08;;;;;;;24.77;7.90;;;5.00;99.90;;;;;;5034382;28;20587;-72
2020/12/06 05:28:36;;;;;;;20.17;9.07;;;5.00;99.90;;;;;;5034686;28;20204;-71
2020/12/06 05:31:03;;;;;;;20.17;7.88;;;5.10;99.90;;;;;;5034499;28;20239;-71
2020/12/06 05:33:29;;;;;;;30.15;9.80;;;5.10;99.90;;;;;;5034769;28;20212;-71
2020/12/06 05:35:59;;;;;;;21.98;8.80;;;5.10;99.90;;;;;;5034456;28;20577;-71
2020/12/06 05:38:25;;;;;;;17.00;9.13;;;5.00;99.90;;;;;;5034574;28;20210;-71
2020/12/06 05:40:56;;;;;;;21.58;9.77;;;5.10;99.90;;;;;;5034459;28;20211;-71
2020/12/06 05:43:27;;;;;;;21.50;9.93;;;5.10;99.90;;;;;;5034542;28;20208;-71
2020/12/06 05:46:05;;;;;;;22.17;9.32;;;5.20;99.90;;;;;;5034066;28;20239;-71
2020/12/06 05:48:32;;;;;;;18.88;9.02;;;5.30;99.90;;;;;;5033784;28;20218;-71
2020/12/06 05:51:00;;;;;;;19.35;9.40;;;5.40;99.90;;;;;;5034266;28;20208;-71
2020/12/06 05:53:27;;;;;;;21.52;9.48;;;5.40;99.90;;;;;;5034590;28;20211;-72
2020/12/06 05:56:00;;;;;;;21.85;10.38;;;5.40;99.90;;;;;;5033806;28;20227;-71
2020/12/06 05:58:26;;;;;;;16.50;8.88;;;5.30;99.90;;;;;;5034356;28;20635;-71
2020/12/06 06:00:56;;;;;;;25.45;10.35;;;5.30;99.90;;;;;;5034347;28;20204;-71
2020/12/06 06:03:29;;;;;;;24.13;8.70;;;5.30;99.90;;;;;;5034208;28;20600;-71
2020/12/06 06:05:56;;;;;;;24.40;8.95;;;5.20;99.90;;;;;;5033614;28;20230;-71
2020/12/06 06:08:26;;;;;;;20.88;9.27;;;5.30;99.90;;;;;;5034078;28;20597;-71
2020/12/06 06:11:19;;;;;;;24.30;9.27;;;5.20;99.90;;;;;;5033958;28;20211;-71
2020/12/06 06:13:52;;;;;;;23.50;9.45;;;5.10;99.90;;;;;;5034088;28;20192;-71
2020/12/06 06:16:20;;;;;;;18.85;8.07;;;4.80;99.90;;;;;;5033546;28;20199;-72
2020/12/06 06:18:49;;;;;;;14.82;7.72;;;4.70;99.90;;;;;;5033917;28;20214;-71
2020/12/06 06:21:18;;;;;;;21.42;7.88;;;4.70;99.90;;;;;;5033717;28;20220;-71
2020/12/06 06:23:47;;;;;;;16.17;8.38;;;4.60;99.90;;;;;;5033918;28;20295;-71
2020/12/06 06:26:16;;;;;;;18.50;10.23;;;4.50;99.90;;;;;;5033805;28;20224;-71
2020/12/06 06:28:45;;;;;;;13.48;7.78;;;4.40;99.90;;;;;;5033720;28;20204;-71
2020/12/06 06:31:11;;;;;;;19.77;8.15;;;4.50;99.90;;;;;;5033498;28;20236;-71
2020/12/06 06:33:39;;;;;;;17.45;8.25;;;4.50;99.90;;;;;;5033503;28;20208;-71
2020/12/06 06:36:09;;;;;;;21.08;10.07;;;4.50;99.90;;;;;;5033494;28;20200;-71
2020/12/06 06:38:40;;;;;;;23.20;9.00;;;4.60;99.90;;;;;;5033748;28;20200;-71
2020/12/06 06:41:07;;;;;;;20.75;8.55;;;4.60;99.90;;;;;;5033556;28;20231;-71
2020/12/06 06:43:35;;;;;;;25.52;9.68;;;4.80;99.90;;;;;;5033590;28;20205;-72
2020/12/06 06:46:13;;;;;;;20.58;8.80;;;4.90;99.90;;;;;;5033668;28;20239;-71
2020/12/06 06:48:40;;;;;;;20.20;8.48;;;5.00;99.90;;;;;;5033532;28;20206;-71
2020/12/06 06:51:07;;;;;;;20.80;8.30;;;5.10;99.90;;;;;;5033453;28;20242;-72
2020/12/06 06:53:33;;;;;;;22.90;8.82;;;5.20;99.90;;;;;;5033530;28;20299;-72
2020/12/06 06:56:01;;;;;;;18.45;8.35;;;5.30;99.90;;;;;;5033087;28;20631;-72
2020/12/06 06:58:35;;;;;;;19.50;9.05;;;5.30;99.90;;;;;;5034338;28;20226;-72
2020/12/06 07:01:15;;;;;;;16.95;7.97;;;5.30;99.90;;;;;;5037562;28;20245;-72
2020/12/06 07:03:43;;;;;;;15.25;7.72;;;5.20;99.90;;;;;;5037560;28;20198;-71
2020/12/06 07:06:10;;;;;;;17.55;8.15;;;5.30;99.90;;;;;;5037072;28;20236;-72
2020/12/06 07:08:36;;;;;;;20.45;8.98;;;5.20;99.90;;;;;;5037322;28;20290;-71
2020/12/06 07:11:05;;;;;;;22.42;9.07;;;5.40;99.90;;;;;;5037086;28;20235;-72
2020/12/06 07:13:32;;;;;;;18.10;8.23;;;5.40;99.90;;;;;;5037371;28;20223;-72
2020/12/06 07:15:58;;;;;;;19.35;9.27;;;5.30;99.90;;;;;;5037130;28;20222;-71
2020/12/06 07:18:25;;;;;;;21.25;8.88;;;5.30;99.90;;;;;;5037149;28;20204;-72
2020/12/06 07:20:51;;;;;;;25.55;9.23;;;5.50;99.90;;;;;;5037090;28;20204;-72
2020/12/06 07:23:18;;;;;;;25.98;11.00;;;5.50;99.90;;;;;;5036858;28;20209;-72
2020/12/06 07:25:45;;;;;;;21.02;8.20;;;5.50;99.90;;;;;;5036807;28;20235;-72
2020/12/06 07:28:12;;;;;;;20.70;7.80;;;5.60;99.90;;;;;;5037042;28;20203;-72
2020/12/06 07:30:43;;;;;;;22.13;7.55;;;5.40;99.90;;;;;;5036883;28;20208;-72
2020/12/06 07:33:10;;;;;;;16.25;7.75;;;5.40;99.90;;;;;;5037106;28;20287;-72
2020/12/06 07:35:36;;;;;;;20.92;8.77;;;5.50;99.90;;;;;;5036573;28;20662;-72
2020/12/06 07:38:03;;;;;;;25.33;9.20;;;5.30;99.90;;;;;;5036853;28;20204;-72
2020/12/06 07:40:30;;;;;;;16.33;8.07;;;5.20;99.90;;;;;;5036816;28;20200;-72
2020/12/06 07:42:56;;;;;;;15.57;6.50;;;5.20;99.90;;;;;;5036773;28;20224;-72
2020/12/06 07:45:26;;;;;;;19.45;8.20;;;5.20;99.90;;;;;;5036443;28;20724;-72
2020/12/06 07:47:52;;;;;;;19.65;6.38;;;5.40;99.90;;;;;;5036640;28;20212;-71
2020/12/06 07:50:19;;;;;;;24.55;7.85;;;5.40;99.90;;;;;;5036594;28;20234;-72
2020/12/06 07:52:45;;;;;;;21.42;8.35;;;5.50;99.90;;;;;;5036577;28;20315;-71
2020/12/06 07:55:11;;;;;;;27.42;8.30;;;5.40;99.90;;;;;;5036115;28;20204;-71
2020/12/06 07:57:49;;;;;;;19.55;7.53;;;5.40;99.90;;;;;;5036481;28;20572;-71
2020/12/06 08:00:19;;;;;;;18.70;6.28;;;5.30;99.90;;;;;;5036770;28;20639;-71
2020/12/06 08:02:48;;;;;;;21.85;8.75;;;5.30;99.90;;;;;;5036321;28;20226;-71
2020/12/06 08:05:18;;;;;;;26.55;7.75;;;5.30;99.90;;;;;;5036351;28;20228;-71
2020/12/06 08:07:48;;;;;;;21.75;6.78;;;5.30;99.90;;;;;;5036194;28;20670;-72
2020/12/06 08:10:16;;;;;;;19.88;7.03;;;5.50;99.90;;;;;;5035543;28;20625;-72
2020/12/06 08:12:45;;;;;;;18.05;8.25;;;5.50;99.90;;;;;;5036210;28;20231;-71
2020/12/06 08:15:12;;;;;;;28.05;9.85;;;5.50;99.90;;;;;;5035901;28;20207;-72
2020/12/06 08:17:46;;;;;;;20.13;9.40;;;5.60;99.90;;;;;;5036181;28;20200;-71
2020/12/06 08:20:13;;;;;;;14.05;7.57;;;5.60;99.90;;;;;;5036064;28;20584;-72
2020/12/06 08:22:50;;;;;;;14.90;7.28;;;5.60;99.90;;;;;;5035758;28;20702;-72
2020/12/06 08:25:19;;;;;;;16.00;7.38;;;5.60;99.90;;;;;;5035682;28;20232;-71
2020/12/06 08:27:47;;;;;;;19.23;7.57;;;5.70;99.90;;;;;;5035913;28;20203;-72
2020/12/06 08:30:15;;;;;;;18.77;7.72;;;5.60;99.90;;;;;;5035696;28;20208;-72
2020/12/06 08:32:53;;;;;;;19.92;7.97;;;5.60;99.90;;;;;;5035529;28;20294;-71
2020/12/06 08:35:20;;;;;;;18.23;7.82;;;5.70;99.90;;;;;;5035596;28;20200;-72
2020/12/06 08:37:46;;;;;;;15.98;7.32;;;5.80;99.90;;;;;;5035680;28;20677;-71
2020/12/06 08:40:13;;;;;;;13.68;7.32;;;5.80;99.90;;;;;;5035667;28;20295;-71
2020/12/06 08:42:39;;;;;;;18.50;7.38;;;5.80;99.90;;;;;;5035651;28;20224;-71
2020/12/06 08:45:06;;;;;;;17.95;7.43;;;5.90;99.90;;;;;;5035789;28;20224;-72
2020/12/06 08:47:44;;;;;;;19.27;7.10;;;5.90;99.90;;;;;;5035444;28;20212;-72
2020/12/06 08:50:12;;;;;;;15.63;6.65;;;5.90;99.90;;;;;;5035536;28;20230;-71
2020/12/06 08:52:39;;;;;;;18.48;6.50;;;5.70;99.90;;;;;;5035202;28;20228;-71
2020/12/06 08:55:28;;;;;;;18.20;7.35;;;5.80;99.90;;;;;;5035293;28;20208;-72
2020/12/06 08:57:56;;;;;;;17.20;6.60;;;5.80;99.90;;;;;;5035508;28;20291;-71
2020/12/06 09:00:24;;;;;;;10.02;5.28;;;5.80;99.90;;;;;;5035347;28;20203;-71
2020/12/06 09:02:50;;;;;;;7.78;5.00;;;6.00;99.90;;;;;;5034986;28;20224;-71
2020/12/06 09:05:16;;;;;;;14.98;5.65;;;5.90;99.90;;;;;;5034900;28;20223;-71
2020/12/06 09:07:43;;;;;;;15.80;5.57;;;5.90;99.90;;;;;;5035213;28;20211;-71
2020/12/06 09:10:10;;;;;;;10.88;5.60;;;6.00;99.90;;;;;;5035141;28;20200;-72
2020/12/06 09:12:37;;;;;;;18.35;5.95;;;6.00;99.90;;;;;;5034793;28;20773;-71
2020/12/06 09:15:05;;;;;;;12.15;6.63;;;6.10;99.90;;;;;;5034846;28;20215;-71
2020/12/06 09:17:33;;;;;;;11.20;5.63;;;6.10;99.90;;;;;;5035169;28;20732;-72
2020/12/06 09:19:59;;;;;;;11.23;5.63;;;6.20;99.90;;;;;;5034719;28;20204;-71
2020/12/06 09:22:26;;;;;;;12.93;5.13;;;6.30;99.90;;;;;;5033578;28;20225;-71
2020/12/06 09:24:52;;;;;;;13.70;6.28;;;6.30;99.90;;;;;;5034422;28;20207;-72
2020/12/06 09:27:18;;;;;;;16.60;6.22;;;6.20;99.90;;;;;;5034852;28;20204;-71
2020/12/06 09:29:44;;;;;;;9.05;6.10;;;6.20;99.90;;;;;;5034788;28;20561;-71
2020/12/06 09:32:12;;;;;;;12.07;5.90;;;6.10;99.90;;;;;;5034375;28;20324;-71
2020/12/06 09:34:40;;;;;;;12.60;6.18;;;6.00;99.90;;;;;;5034551;28;20200;-71
2020/12/06 09:37:06;;;;;;;14.38;6.47;;;5.90;99.90;;;;;;5034455;28;20208;-71
2020/12/06 09:39:32;;;;;;;12.07;7.30;;;5.80;99.90;;;;;;5034650;28;20230;-71
2020/12/06 09:41:58;;;;;;;15.10;6.70;;;5.90;99.90;;;;;;5034465;28;20220;-71
2020/12/06 09:44:25;;;;;;;10.25;4.82;;;6.00;99.90;;;;;;5034240;28;20673;-71
2020/12/06 09:46:51;;;;;;;18.98;8.07;;;6.10;99.90;;;;;;5034176;28;20234;-71
2020/12/06 09:49:17;;;;;;;10.45;5.03;;;6.10;99.90;;;;;;5034364;28;20204;-71
2020/12/06 09:51:44;;;;;;;8.05;4.80;;;6.10;99.90;;;;;;5034389;28;20230;-71
2020/12/06 09:54:11;;;;;;;10.85;5.07;;;6.20;99.90;;;;;;5034378;28;20242;-71
2020/12/06 09:56:37;;;;;;;13.35;5.50;;;6.30;99.90;;;;;;5034099;28;20208;-71
2020/12/06 09:59:03;;;;;;;9.13;4.28;;;6.30;99.90;;;;;;5034212;28;20569;-71
2020/12/06 10:01:29;;;;;;;9.50;4.35;;;6.30;99.90;;;;;;5034376;28;20230;-71
2020/12/06 10:03:56;;;;;;;12.77;5.25;;;6.30;99.90;;;;;;5033851;28;20662;-71
2020/12/06 10:06:23;;;;;;;10.73;5.82;;;6.30;99.90;;;;;;5033638;28;20228;-71
2020/12/06 10:08:51;;;;;;;11.75;4.90;;;6.30;99.90;;;;;;5034080;28;20294;-71
2020/12/06 10:11:17;;;;;;;7.93;4.57;;;6.40;99.90;;;;;;5033899;28;20224;-72
2020/12/06 10:13:44;;;;;;;10.40;5.65;;;6.30;99.90;;;;;;5034039;28;20688;-72
2020/12/06 10:16:10;;;;;;;13.32;5.35;;;6.40;99.90;;;;;;5033596;28;20206;-72
2020/12/06 10:18:36;;;;;;;8.38;5.03;;;6.30;99.90;;;;;;5033938;28;20204;-71
2020/12/06 10:21:05;;;;;;;7.85;4.68;;;6.30;99.90;;;;;;5033770;28;20199;-72
2020/12/06 10:23:31;;;;;;;12.40;6.70;;;6.30;99.90;;;;;;5033934;28;20307;-71
2020/12/06 10:25:58;;;;;;;9.13;5.20;;;6.40;99.90;;;;;;5033437;28;20586;-72
2020/12/06 10:28:25;;;;;;;10.77;5.22;;;6.40;99.90;;;;;;5033744;28;20279;-71
2020/12/06 10:30:51;;;;;;;8.57;5.13;;;6.40;99.90;;;;;;5033565;28;20214;-71
2020/12/06 10:33:17;;;;;;;9.15;4.93;;;6.40;99.90;;;;;;5033377;28;20655;-71
2020/12/06 10:35:44;;;;;;;7.18;4.70;;;6.40;99.90;;;;;;5033533;28;20207;-72
2020/12/06 10:38:11;;;;;;;7.30;5.13;;;6.40;99.90;;;;;;5033664;28;20211;-71
2020/12/06 10:40:37;;;;;;;9.90;4.00;;;6.40;99.90;;;;;;5033634;28;20208;-71
2020/12/06 10:43:04;;;;;;;7.65;4.75;;;6.40;99.90;;;;;;5033488;28;20270;-71
2020/12/06 10:45:32;;;;;;;9.15;4.70;;;6.50;99.90;;;;;;5033101;28;20233;-71
2020/12/06 10:47:59;;;;;;;11.50;5.65;;;6.40;99.90;;;;;;5033565;28;20239;-72
2020/12/06 10:50:25;;;;;;;17.33;6.10;;;6.30;99.90;;;;;;5033353;28;20208;-71
2020/12/06 10:52:51;;;;;;;11.27;6.22;;;6.30;99.90;;;;;;5033590;28;20232;-71
2020/12/06 10:55:17;;;;;;;9.23;4.90;;;6.30;99.90;;;;;;5033441;28;20201;-72
2020/12/06 10:57:44;;;;;;;11.73;6.70;;;6.40;99.90;;;;;;5033406;28;20574;-71
2020/12/06 11:00:11;;;;;;;16.20;6.40;;;6.40;99.90;;;;;;5033488;28;20214;-71
2020/12/06 11:02:37;;;;;;;13.32;6.20;;;6.30;99.90;;;;;;5033418;28;20224;-71
2020/12/06 11:05:03;;;;;;;11.05;6.30;;;6.30;99.90;;;;;;5033097;28;20214;-71
2020/12/06 11:07:30;;;;;;;10.80;6.30;;;6.30;99.90;;;;;;5033591;28;20226;-71
2020/12/06 11:09:56;;;;;;;10.63;5.70;;;6.20;99.90;;;;;;5033313;28;20240;-71
2020/12/06 11:12:22;;;;;;;12.43;5.65;;;6.30;99.90;;;;;;5033040;28;20228;-71
2020/12/06 11:14:49;;;;;;;9.85;5.90;;;6.40;99.90;;;;;;5033096;28;20204;-71
2020/12/06 11:17:16;;;;;;;8.88;5.03;;;6.30;99.90;;;;;;5033323;28;20204;-71
2020/12/06 11:19:42;;;;;;;11.00;5.40;;;6.30;99.90;;;;;;5033139;28;20687;-71
2020/12/06 11:22:08;;;;;;;12.68;6.45;;;6.20;99.90;;;;;;5033216;28;20228;-71
2020/12/06 11:24:36;;;;;;;10.25;5.25;;;6.00;99.90;;;;;;5033178;28;20569;-71
2020/12/06 11:27:02;;;;;;;13.60;5.88;;;6.00;99.90;;;;;;5033153;28;20571;-71
2020/12/06 11:29:28;;;;;;;14.52;6.80;;;5.90;99.90;;;;;;5033165;28;20204;-71
2020/12/06 11:31:55;;;;;;;12.80;5.40;;;5.90;99.90;;;;;;5032975;28;20242;-71
2020/12/06 11:34:22;;;;;;;11.80;6.20;;;5.80;99.90;;;;;;5033174;28;20212;-71
2020/12/06 11:36:49;;;;;;;14.50;6.43;;;5.90;99.90;;;;;;5033132;28;20201;-71
2020/12/06 11:39:16;;;;;;;13.40;6.85;;;5.90;99.90;;;;;;5033072;28;20207;-72
2020/12/06 11:41:42;;;;;;;10.18;6.50;;;5.90;99.90;;;;;;5033277;28;20589;-71
2020/12/06 11:44:08;;;;;;;11.23;6.18;;;5.90;99.90;;;;;;5033266;28;20214;-71
2020/12/06 11:46:35;;;;;;;12.25;6.75;;;5.80;99.90;;;;;;5035166;28;20694;-71
2020/12/06 11:49:01;;;;;;;13.15;7.05;;;5.80;99.90;;;;;;5036687;28;20253;-71
2020/12/06 11:51:28;;;;;;;13.15;6.47;;;5.80;99.90;;;;;;5036746;28;20719;-71
2020/12/06 11:53:54;;;;;;;13.38;5.90;;;5.80;99.90;;;;;;5036837;28;20320;-71
2020/12/06 11:56:22;;;;;;;9.38;5.25;;;5.80;99.90;;;;;;5036165;28;20658;-71
2020/12/06 11:58:49;;;;;;;10.68;5.97;;;5.80;99.90;;;;;;5036538;28;20287;-71
2020/12/06 12:01:16;;;;;;;12.73;5.55;;;5.90;99.90;;;;;;5036409;28;20227;-71
2020/12/06 12:03:42;;;;;;;11.15;5.90;;;5.90;99.90;;;;;;5036174;28;20208;-71
2020/12/06 12:06:08;;;;;;;14.60;6.45;;;5.80;99.90;;;;;;5035947;28;20220;-71
2020/12/06 12:08:35;;;;;;;9.50;5.55;;;6.00;99.90;;;;;;5036201;28;20204;-71
2020/12/06 12:11:03;;;;;;;10.82;6.00;;;6.00;99.90;;;;;;5035887;28;20215;-71
2020/12/06 12:13:29;;;;;;;11.18;5.85;;;5.90;99.90;;;;;;5036187;28;20208;-71
2020/12/06 12:15:55;;;;;;;15.68;6.78;;;5.90;99.90;;;;;;5036032;28;20219;-71
2020/12/06 12:18:21;;;;;;;11.75;5.70;;;5.90;99.90;;;;;;5036033;28;20204;-72
2020/12/06 12:20:49;;;;;;;14.88;5.55;;;5.80;99.90;;;;;;5036130;28;20200;-71
2020/12/06 12:23:16;;;;;;;13.70;6.40;;;5.90;99.90;;;;;;5036056;28;20220;-72
2020/12/06 12:25:45;;;;;;;12.20;6.63;;;6.00;99.90;;;;;;5035922;28;20234;-71
2020/12/06 12:28:11;;;;;;;11.13;7.40;;;6.20;99.90;;;;;;5035797;28;20670;-72
2020/12/06 12:30:37;;;;;;;12.02;5.55;;;6.30;99.90;;;;;;5035779;28;20200;-72
2020/12/06 12:33:04;;;;;;;12.80;6.65;;;6.40;99.90;;;;;;5035887;28;20224;-72
2020/12/06 12:35:30;;;;;;;14.15;6.22;;;6.60;99.90;;;;;;5035563;28;20298;-71
2020/12/06 12:37:56;;;;;;;12.18;6.72;;;6.70;99.90;;;;;;5035867;28;20204;-72
2020/12/06 12:40:23;;;;;;;13.88;6.43;;;6.70;99.90;;;;;;5035518;28;20671;-71
2020/12/06 12:42:50;;;;;;;10.85;5.95;;;6.60;99.90;;;;;;5035738;28;20322;-71
2020/12/06 12:45:18;;;;;;;12.05;6.20;;;6.60;99.90;;;;;;5035355;28;20204;-72